Time;durP1;ratioP1;P1;durP2;ratioP2;P2;SDS_P1;SDS_P2;PMS_P1;PMS_P2;Temp;Humidity;BMP_temperature;BMP_pressure;BME280_temperature;BME280_humidity;BME280_pressure;Samples;Min_cycle;Max_cycle;Signal;HPM_P1;HPM_P2
2021/05/11 00:00:36;;;;;;;3.25;1.57;;;;;;;13.16;74.72;100889.95;1607530;87;20973;-84
2021/05/11 00:03:03;;;;;;;4.28;1.80;;;;;;;13.25;74.95;100890.27;1607110;87;21263;-82
2021/05/11 00:05:30;;;;;;;5.08;1.40;;;;;;;13.22;72.62;100884.55;1628789;87;21687;-83
2021/05/11 00:07:59;;;;;;;3.30;1.30;;;;;;;13.31;72.37;100879.70;1628620;87;21469;-83
2021/05/11 00:10:27;;;;;;;12.35;1.87;;;;;;;13.20;73.96;100876.69;1628817;87;21235;-83
2021/05/11 00:12:55;;;;;;;3.40;1.50;;;;;;;13.21;74.43;100878.85;1628599;87;21234;-83
2021/05/11 00:15:22;;;;;;;6.70;1.65;;;;;;;13.25;75.08;100879.95;1628767;87;21262;-83
2021/05/11 00:17:48;;;;;;;5.00;1.37;;;;;;;13.20;74.29;100880.75;1628796;87;21191;-83
2021/05/11 00:20:17;;;;;;;5.53;1.60;;;;;;;13.28;75.18;100880.80;1628864;87;21218;-83
2021/05/11 00:22:44;;;;;;;3.90;1.20;;;;;;;13.24;76.12;100871.58;1628922;87;21198;-84
2021/05/11 00:25:11;;;;;;;3.30;1.70;;;;;;;13.25;74.73;100873.19;1628862;87;21115;-83
2021/05/11 00:27:37;;;;;;;6.50;1.65;;;;;;;13.35;73.20;100869.14;1623161;87;21343;-83
2021/05/11 00:30:05;;;;;;;5.28;1.35;;;;;;;13.24;75.72;100874.28;1621635;87;21667;-83
2021/05/11 00:32:31;;;;;;;5.90;1.47;;;;;;;13.15;75.59;100869.95;1621649;87;21179;-83
2021/05/11 00:34:57;;;;;;;9.60;1.60;;;;;;;13.10;75.87;100874.80;1640142;86;20993;-82
2021/05/11 00:37:23;;;;;;;5.08;1.37;;;;;;;13.25;75.54;100873.19;1621630;87;21724;-84
2021/05/11 00:39:49;;;;;;;5.92;1.42;;;;;;;13.13;77.43;100873.45;1621513;87;21236;-82
2021/05/11 00:42:14;;;;;;;7.97;1.55;;;;;;;13.14;78.13;100871.01;1621476;87;21112;-83
2021/05/11 00:44:40;;;;;;;6.22;1.60;;;;;;;13.15;78.85;100877.52;1621556;87;21032;-83
2021/05/11 00:47:07;;;;;;;3.40;1.67;;;;;;;13.26;77.25;100876.19;1621536;87;21623;-83
2021/05/11 00:49:35;;;;;;;5.50;1.50;;;;;;;13.23;79.91;100878.05;1621639;87;21203;-83
2021/05/11 00:52:05;;;;;;;7.15;1.80;;;;;;;13.10;79.19;100873.45;1621601;87;22024;-84
2021/05/11 00:54:32;;;;;;;5.55;1.50;;;;;;;13.09;79.99;100866.42;1621656;87;21194;-82
2021/05/11 00:56:58;;;;;;;3.77;1.20;;;;;;;13.08;79.37;100868.84;1638887;85;21215;-84
2021/05/11 01:01:56;;;;;;;4.03;1.67;;;;;;;13.05;77.40;100851.79;1587637;88;21220;-83
2021/05/11 01:04:23;;;;;;;6.08;1.52;;;;;;;13.00;78.74;100848.27;1501278;95;22086;-84
2021/05/11 01:06:49;;;;;;;3.37;1.50;;;;;;;13.08;76.72;100855.30;1501082;95;21660;-84
2021/05/11 01:09:16;;;;;;;4.45;1.30;;;;;;;13.00;78.00;100846.41;1501011;95;21215;-83
2021/05/11 01:11:43;;;;;;;2.60;1.50;;;;;;;12.98;78.87;100848.55;1501056;95;21291;-84
2021/05/11 01:14:09;;;;;;;2.42;1.55;;;;;;;13.04;77.08;100842.06;1501177;95;21277;-84
2021/05/11 01:16:36;;;;;;;5.17;1.40;;;;;;;13.06;79.61;100843.13;1501384;95;21605;-84
2021/05/11 01:21:41;;;;;;;6.87;2.20;;;;;;;13.08;78.38;100852.60;1458357;97;21295;-83
2021/05/11 01:24:05;;;;;;;6.70;1.77;;;;;;;13.06;78.75;100848.54;1458349;97;21763;-83
2021/05/11 01:26:43;;;;;;;4.50;1.80;;;;;;;13.01;79.92;100845.31;1457087;97;21239;-83
2021/05/11 01:29:14;;;;;;;4.40;1.42;;;;;;;12.95;80.24;100845.84;1451307;98;21255;-83
2021/05/11 01:31:50;;;;;;;4.00;1.60;;;;;;;13.07;79.06;100854.24;1451257;98;21719;-83
2021/05/11 02:24:58;;;;;;;4.65;1.35;;;;;;;13.17;76.70;100813.64;1553073;90;21400;-82
2021/05/11 02:27:24;;;;;;;3.95;1.60;;;;;;;13.18;78.61;100801.75;1496723;93;22845;-83
2021/05/11 02:29:50;;;;;;;7.35;1.47;;;;;;;13.21;76.58;100797.66;1496261;95;21281;-82
2021/05/11 02:32:17;;;;;;;3.58;1.22;;;;;;;13.04;78.47;100786.59;1496671;94;21123;-83
2021/05/11 02:34:44;;;;;;;5.60;1.90;;;;;;;13.12;78.20;100777.94;1496419;95;21327;-82
2021/05/11 02:37:10;;;;;;;5.87;1.35;;;;;;;13.19;76.64;100779.01;1496530;95;21679;-83
2021/05/11 02:39:37;;;;;;;3.15;1.40;;;;;;;13.13;77.83;100766.57;1495238;95;21039;-83
2021/05/11 02:42:05;;;;;;;4.53;1.50;;;;;;;13.24;75.88;100760.06;1496858;95;21250;-82
2021/05/11 02:44:41;;;;;;;3.02;1.37;;;;;;;13.10;77.92;100757.09;1496335;95;21251;-82
2021/05/11 02:47:04;;;;;;;4.42;1.60;;;;;;;13.09;78.47;100754.14;1491965;95;21221;-83
2021/05/11 02:49:30;;;;;;;2.10;1.22;;;;;;;13.01;79.42;100757.38;1492443;95;21020;-82
2021/05/11 02:51:56;;;;;;;4.35;1.32;;;;;;;13.12;77.74;100753.59;1496853;95;21113;-82
2021/05/11 02:54:22;;;;;;;5.72;1.50;;;;;;;13.13;77.53;100753.84;1514306;91;21169;-83
2021/05/11 02:56:48;;;;;;;5.75;1.25;;;;;;;13.07;78.15;100741.41;1548305;91;21028;-82
2021/05/11 02:59:14;;;;;;;1.87;1.25;;;;;;;13.15;77.19;100742.77;1549043;91;21631;-83
2021/05/11 03:01:40;;;;;;;3.83;1.52;;;;;;;13.28;76.62;100735.99;1548174;92;21020;-83
2021/05/11 03:04:06;;;;;;;4.85;1.35;;;;;;;13.17;78.15;100737.87;1548358;91;21056;-83
2021/05/11 03:06:32;;;;;;;7.05;1.30;;;;;;;13.21;78.06;100732.20;1548802;91;21733;-83
2021/05/11 03:08:57;;;;;;;5.53;1.30;;;;;;;13.26;76.88;100732.74;1547663;91;21036;-83
2021/05/11 03:11:23;;;;;;;11.12;1.50;;;;;;;13.38;75.65;100733.25;1524775;93;21218;-83
2021/05/11 03:13:49;;;;;;;2.90;1.40;;;;;;;13.52;74.80;100730.78;1524878;94;21014;-83
2021/05/11 03:16:16;;;;;;;2.55;1.40;;;;;;;13.52;75.18;100725.36;1524900;94;21199;-83
2021/05/11 03:18:44;;;;;;;3.25;1.40;;;;;;;13.51;76.38;100734.58;1513996;94;21144;-83
2021/05/11 03:21:11;;;;;;;2.62;1.30;;;;;;;13.59;74.90;100736.18;1524923;94;21216;-83
2021/05/11 03:23:37;;;;;;;3.42;1.55;;;;;;;13.57;74.67;100738.89;1539892;89;21346;-83
2021/05/11 03:26:03;;;;;;;4.00;1.32;;;;;;;13.70;75.50;100748.31;1600156;89;20965;-83
2021/05/11 03:28:29;;;;;;;3.52;1.50;;;;;;;13.53;75.03;100748.64;1597048;89;21699;-83
2021/05/11 03:30:55;;;;;;;3.65;1.00;;;;;;;13.52;76.45;100754.59;1596442;89;21102;-83
2021/05/11 03:33:21;;;;;;;2.27;1.20;;;;;;;13.68;76.45;100759.96;1603865;89;21211;-83
2021/05/11 03:35:47;;;;;;;4.85;1.42;;;;;;;13.43;75.55;100767.08;1607563;87;21276;-83
2021/05/11 03:38:14;;;;;;;4.35;1.30;;;;;;;13.61;76.97;100766.48;1584996;87;21093;-83
2021/05/11 03:40:40;;;;;;;5.22;1.75;;;;;;;13.77;75.88;100782.70;1610469;87;21208;-83
2021/05/11 03:43:12;;;;;;;4.33;1.40;;;;;;;13.68;73.63;100783.81;1610522;87;21176;-84
2021/05/11 03:45:39;;;;;;;5.50;1.42;;;;;;;13.68;73.62;100787.88;1612085;87;21183;-84
2021/05/11 03:48:02;;;;;;;5.50;1.50;;;;;;;13.71;74.85;100777.84;1594156;88;21118;-83
2021/05/11 03:50:28;;;;;;;5.65;1.92;;;;;;;13.75;75.50;100783.52;1610282;87;21160;-83
2021/05/11 03:52:55;;;;;;;3.67;1.20;;;;;;;13.74;73.78;100778.65;1610510;87;20978;-83
2021/05/11 03:55:21;;;;;;;5.33;1.37;;;;;;;14.02;74.39;100776.36;1626698;86;22266;-83
2021/05/11 03:57:47;;;;;;;5.90;1.72;;;;;;;14.07;73.75;100767.66;1636573;86;21156;-82
2021/05/11 04:00:14;;;;;;;4.17;1.37;;;;;;;13.92;72.61;100765.03;1636592;86;21795;-83
2021/05/11 04:02:40;;;;;;;4.03;1.67;;;;;;;14.00;73.45;100767.16;1636591;86;21232;-82
2021/05/11 04:05:09;;;;;;;4.33;1.60;;;;;;;14.14;72.23;100761.92;1636698;86;20985;-83
2021/05/11 04:07:40;;;;;;;6.28;1.30;;;;;;;14.14;74.04;100762.48;1636572;86;21141;-83
2021/05/11 04:10:15;;;;;;;3.10;1.25;;;;;;;14.24;72.87;100755.11;1583066;87;21714;-82
2021/05/11 04:17:51;;;;;;;1.95;1.30;;;;;;;14.39;71.95;100753.40;1586630;89;21117;-83
2021/05/11 04:20:17;;;;;;;2.90;1.62;;;;;;;14.38;73.23;100740.91;1581950;89;20982;-83
2021/05/11 04:22:43;;;;;;;4.50;1.65;;;;;;;14.31;71.66;100733.10;1581741;90;20974;-83
2021/05/11 04:25:09;;;;;;;2.80;1.40;;;;;;;14.38;76.61;100739.00;1581644;89;21652;-82
2021/05/11 04:27:35;;;;;;;5.05;1.57;;;;;;;14.64;72.69;100734.23;1587843;89;21279;-81
2021/05/11 04:30:04;;;;;;;4.58;1.52;;;;;;;14.74;69.92;100724.68;1605499;89;21590;-83
2021/05/11 04:32:30;;;;;;;4.30;1.65;;;;;;;14.62;72.86;100728.83;1608774;88;21102;-83
2021/05/11 04:34:56;;;;;;;6.47;1.75;;;;;;;14.51;70.33;100727.56;1611761;87;21254;-83
2021/05/11 04:37:22;;;;;;;5.65;1.60;;;;;;;14.67;71.96;100724.73;1605477;87;22037;-83
2021/05/11 04:39:48;;;;;;;8.58;2.00;;;;;;;14.76;71.12;100713.00;1610418;87;21006;-83
2021/05/11 04:42:14;;;;;;;2.65;1.22;;;;;;;14.53;70.76;100719.16;1610617;87;21101;-82
2021/05/11 04:44:40;;;;;;;3.42;1.35;;;;;;;14.47;72.08;100717.00;1610521;87;21077;-84
2021/05/11 04:47:12;;;;;;;3.67;1.60;;;;;;;14.38;74.28;100730.06;1612734;87;21220;-82
2021/05/11 04:49:34;;;;;;;9.88;2.42;;;;;;;14.51;75.29;100722.14;1607384;87;21820;-83
2021/05/11 04:52:00;;;;;;;5.65;1.40;;;;;;;14.62;75.68;100714.75;1613289;87;21517;-83
2021/05/11 04:54:26;;;;;;;7.30;1.80;;;;;;;14.70;74.72;100717.38;1609716;88;20987;-83
2021/05/11 04:56:52;;;;;;;5.75;1.57;;;;;;;14.75;73.56;100722.22;1606165;89;21690;-84
2021/05/11 04:59:18;;;;;;;2.92;2.00;;;;;;;15.34;74.14;100720.29;1606334;89;21187;-83
2021/05/11 05:01:47;;;;;;;4.15;1.75;;;;;;;15.68;73.62;100697.66;1609864;89;22465;-83
2021/05/11 05:04:14;;;;;;;4.17;1.60;;;;;;;16.20;65.43;100699.11;1609711;88;21201;-84
2021/05/11 05:06:40;;;;;;;3.85;1.60;;;;;;;16.91;62.93;100697.16;1609914;89;21799;-83
2021/05/11 05:09:07;;;;;;;6.75;1.92;;;;;;;17.49;60.57;100691.95;1609839;89;21714;-84
2021/05/11 05:11:40;;;;;;;8.18;1.98;;;;;;;19.18;56.35;100687.21;1609948;89;21149;-84
2021/05/11 05:14:04;;;;;;;4.92;1.70;;;;;;;18.61;53.36;100713.20;1649864;86;21147;-84
2021/05/11 05:16:32;;;;;;;4.85;1.85;;;;;;;17.93;55.40;100700.61;1665067;86;21183;-84
2021/05/11 05:18:58;;;;;;;8.53;2.27;;;;;;;18.70;55.81;100696.08;1640855;86;21171;-84
2021/05/11 05:21:24;;;;;;;4.47;1.57;;;;;;;20.10;53.28;100685.91;1640711;86;21195;-83
2021/05/11 05:24:00;;;;;;;6.95;1.90;;;;;;;20.11;51.91;100675.19;1665323;84;21158;-85
2021/05/11 05:26:22;;;;;;;12.00;1.80;;;;;;;20.61;50.89;100688.37;1669652;84;21183;-84
2021/05/11 05:28:50;;;;;;;7.65;1.80;;;;;;;19.28;50.77;100686.34;1669202;84;21561;-83
2021/05/11 05:31:16;;;;;;;6.10;1.60;;;;;;;19.46;51.95;100693.24;1669587;84;21220;-84
2021/05/11 05:33:42;;;;;;;4.80;1.80;;;;;;;19.17;52.55;100688.31;1670231;84;21562;-85
2021/05/11 05:36:09;;;;;;;7.05;1.50;;;;;;;18.74;52.45;100675.27;1682005;84;21251;-83
2021/05/11 05:38:36;;;;;;;7.65;2.12;;;;;;;18.59;53.00;100682.70;1691699;84;21223;-83
2021/05/11 05:41:08;;;;;;;5.67;2.25;;;;;;;17.97;57.64;100699.44;1683289;84;21172;-83
2021/05/11 05:43:31;;;;;;;4.37;1.90;;;;;;;17.93;56.97;100684.25;1674949;85;21596;-83
2021/05/11 05:45:57;;;;;;;6.87;2.02;;;;;;;18.67;55.97;100680.31;1685325;85;21139;-83
2021/05/11 05:48:23;;;;;;;10.58;1.98;;;;;;;18.01;57.31;100691.71;1685110;85;21739;-84
2021/05/11 05:50:59;;;;;;;11.10;2.00;;;;;;;18.54;56.34;100690.20;1681895;85;22193;-84
2021/05/11 05:53:27;;;;;;;6.53;1.70;;;;;;;18.30;57.01;100707.69;1684863;83;21712;-83
2021/05/11 05:55:51;;;;;;;6.80;1.80;;;;;;;18.08;59.03;100692.08;1681452;85;21173;-82
2021/05/11 05:58:17;;;;;;;6.60;1.85;;;;;;;17.99;59.75;100697.22;1685331;85;21164;-82
2021/05/11 06:00:44;;;;;;;5.83;1.67;;;;;;;17.08;64.37;100721.09;1685351;85;21048;-83
2021/05/11 06:03:32;;;;;;;3.40;1.90;;;;;;;17.12;65.41;100718.02;1685143;85;21855;-84
2021/05/11 06:05:47;;;;;;;5.92;2.08;;;;;;;17.06;67.03;100703.71;1681093;85;21198;-82
2021/05/11 06:08:13;;;;;;;5.90;1.75;;;;;;;17.03;68.02;100721.45;1685245;85;21167;-82
2021/05/11 06:10:39;;;;;;;4.75;1.70;;;;;;;17.05;69.15;100712.17;1685384;85;21187;-82
2021/05/11 06:13:10;;;;;;;5.08;1.70;;;;;;;16.75;71.53;100723.26;1685309;85;20989;-83
2021/05/11 06:18:20;;;;;;;10.13;1.85;;;;;;;16.68;75.89;100717.41;1685287;85;21156;-83
2021/05/11 06:20:46;;;;;;;3.60;1.50;;;;;;;16.61;76.33;100720.23;1685243;85;21180;-82
2021/05/11 06:23:11;;;;;;;5.20;2.20;;;;;;;16.27;77.64;100741.16;1665349;85;20945;-83
2021/05/11 06:25:42;;;;;;;4.17;1.75;;;;;;;16.55;80.66;100735.28;1685317;85;20981;-81
2021/05/11 06:28:05;;;;;;;7.55;1.92;;;;;;;16.54;78.40;100735.59;1682037;85;21139;-80
2021/05/11 06:30:31;;;;;;;9.45;2.20;;;;;;;16.29;80.78;100710.94;1685335;85;21147;-81
2021/05/11 06:32:57;;;;;;;3.80;1.80;;;;;;;16.29;83.50;100734.85;1685392;85;21022;-81
2021/05/11 06:35:25;;;;;;;4.87;2.00;;;;;;;16.32;81.62;100745.70;1685374;85;21532;-81
2021/05/11 06:37:58;;;;;;;6.45;1.90;;;;;;;16.31;84.65;100738.09;1685144;85;21191;-82
2021/05/11 06:40:27;;;;;;;4.53;2.40;;;;;;;16.08;87.72;100755.28;1685265;85;21940;-82
2021/05/11 06:42:54;;;;;;;6.10;2.12;;;;;;;16.02;88.58;100751.02;1628494;87;21568;-81
2021/05/11 06:48:11;;;;;;;8.03;2.47;;;;;;;15.98;90.14;100761.67;1629030;87;21183;-82
2021/05/11 06:50:42;;;;;;;6.50;2.10;;;;;;;16.08;92.05;100759.36;1629015;87;21204;-81
2021/05/11 06:55:38;;;;;;;4.72;2.67;;;;;;;16.57;85.70;100751.32;1578178;89;21630;-81
2021/05/11 06:58:04;;;;;;;6.08;2.20;;;;;;;16.06;95.35;100757.48;1572925;89;21245;-82
2021/05/11 07:00:30;;;;;;;4.17;2.22;;;;;;;16.01;93.69;100754.30;1583119;90;21491;-82
2021/05/11 07:02:58;;;;;;;5.33;2.33;;;;;;;15.99;97.36;100762.48;1552006;90;21028;-82
2021/05/11 07:05:23;;;;;;;3.20;1.95;;;;;;;16.04;95.22;100763.22;1556752;90;21729;-83
2021/05/11 07:08:05;;;;;;;10.20;1.95;;;;;;;16.08;97.96;100753.38;1576357;90;21008;-83
2021/05/11 07:10:30;;;;;;;5.58;2.00;;;;;;;16.12;98.76;100757.70;1485144;95;21562;-82
2021/05/11 07:13:09;;;;;;;9.03;2.35;;;;;;;16.18;98.16;100761.12;1519565;92;21282;-83
2021/05/11 07:15:33;;;;;;;4.62;1.90;;;;;;;16.49;100.00;100754.15;1530121;92;21660;-82
2021/05/11 07:18:09;;;;;;;7.17;2.35;;;;;;;16.54;97.72;100763.60;1526872;92;21290;-81
2021/05/11 07:20:36;;;;;;;9.68;2.50;;;;;;;16.42;97.39;100761.88;1501116;95;21146;-83
2021/05/11 07:23:02;;;;;;;4.22;2.17;;;;;;;16.28;99.34;100776.77;1496452;95;21245;-81
2021/05/11 07:25:33;;;;;;;5.60;2.77;;;;;;;16.08;100.00;100766.16;1485457;96;21652;-82
2021/05/11 07:30:29;;;;;;;5.53;2.12;;;;;;;16.17;100.00;100769.84;1465437;97;21436;-83
2021/05/11 07:32:54;;;;;;;6.85;2.60;;;;;;;15.99;100.00;100773.35;1465525;97;21244;-82
2021/05/11 07:35:19;;;;;;;9.15;3.30;;;;;;;16.17;100.00;100766.32;1462102;97;21743;-83
2021/05/11 07:37:45;;;;;;;3.98;2.25;;;;;;;16.15;100.00;100781.58;1437120;97;21019;-82
2021/05/11 07:40:13;;;;;;;5.35;2.72;;;;;;;16.04;100.00;100778.73;1457407;96;21183;-81
2021/05/11 07:42:39;;;;;;;8.63;2.80;;;;;;;15.93;100.00;100780.76;1479055;95;21309;-82
2021/05/11 07:45:07;;;;;;;6.47;2.47;;;;;;;16.07;100.00;100774.07;1481789;95;21708;-82
2021/05/11 07:47:55;;;;;;;8.58;3.02;;;;;;;16.08;100.00;100773.77;1481696;95;21821;-81
2021/05/11 07:56:40;;;;;;;7.42;2.85;;;;;;;16.12;100.00;100787.05;1482635;95;21798;-83
2021/05/11 08:05:52;;;;;;;6.28;2.75;;;;;;;15.63;100.00;100819.39;1453047;95;21762;-88
2021/05/11 08:10:56;;;;;;;10.05;3.33;;;;;;;15.41;100.00;100820.42;1518186;92;21159;-87
2021/05/11 08:16:11;;;;;;;7.42;3.70;;;;;;;15.26;100.00;100830.08;1514710;92;21752;-89
2021/05/11 08:18:58;;;;;;;9.43;4.45;;;;;;;15.26;100.00;100830.08;1517537;92;21269;-88
2021/05/11 08:29:32;;;;;;;9.15;3.70;;;;;;;15.36;100.00;100830.00;1626577;86;21314;-88
2021/05/11 08:31:58;;;;;;;8.75;3.67;;;;;;;15.27;100.00;100827.09;1631620;86;21223;-87
2021/05/11 08:34:24;;;;;;;10.35;4.25;;;;;;;15.16;100.00;100818.21;1632051;86;21411;-87
2021/05/11 08:36:50;;;;;;;8.48;3.30;;;;;;;15.28;100.00;100831.97;1667792;84;21173;-87
2021/05/11 08:39:17;;;;;;;11.05;3.50;;;;;;;15.29;100.00;100834.38;1657016;85;21074;-86
2021/05/11 08:41:43;;;;;;;6.75;2.77;;;;;;;15.26;100.00;100825.45;1642682;85;21177;-87
2021/05/11 08:44:15;;;;;;;11.33;3.60;;;;;;;15.06;100.00;100837.83;1689507;84;21156;-86
2021/05/11 08:46:42;;;;;;;11.12;3.20;;;;;;;15.13;100.00;100831.55;1632567;85;21173;-87
2021/05/11 08:49:13;;;;;;;7.58;2.98;;;;;;;15.08;100.00;100842.44;1627012;86;21168;-89
2021/05/11 09:27:10;;;;;;;4.20;0.50;;;;;;;13.46;100.00;100919.50;1523467;94;21290;-87
2021/05/11 10:49:29;;;;;;;0.80;0.15;;;;;;;15.48;100.00;100950.48;1315667;107;21382;-88
2021/05/11 10:55:08;;;;;;;0.45;0.20;;;;;;;14.90;97.13;100975.55;1360584;104;21277;-89
2021/05/11 10:57:53;;;;;;;3.55;0.17;;;;;;;14.73;98.42;100948.77;1379117;102;21723;-89
2021/05/11 11:03:28;;;;;;;0.10;0.10;;;;;;;14.97;83.64;100997.75;1380940;103;21654;-91
2021/05/11 11:05:56;;;;;;;0.10;0.10;;;;;;;15.36;80.44;100978.00;1384534;102;21315;-90
2021/05/11 11:08:42;;;;;;;0.20;0.10;;;;;;;15.49;76.06;100971.91;1381168;103;21255;-89
2021/05/11 11:11:17;;;;;;;4.50;0.10;;;;;;;15.49;76.06;100971.91;1401225;101;21340;-89
2021/05/11 11:13:50;;;;;;;4.83;0.23;;;;;;;15.98;72.05;100937.56;1379409;103;21767;-89
2021/05/11 11:16:17;;;;;;;1.87;0.40;;;;;;;15.98;72.05;100937.56;1393000;102;21411;-89
2021/05/11 11:18:44;;;;;;;2.47;0.20;;;;;;;16.32;70.49;100953.77;1419728;99;21302;-90
2021/05/11 11:26:43;;;;;;;0.10;0.10;;;;;;;16.27;60.95;100945.13;1392300;101;21686;-88
2021/05/11 11:29:12;;;;;;;0.40;0.20;;;;;;;16.67;61.68;100942.20;1399316;99;21359;-90
2021/05/11 11:31:40;;;;;;;0.75;0.20;;;;;;;16.69;62.35;100935.36;1440056;99;21244;-90
2021/05/11 11:37:06;;;;;;;0.10;0.10;;;;;;;16.23;55.53;100960.38;1426462;99;40242;-92
2021/05/11 11:39:35;;;;;;;0.20;0.15;;;;;;;16.96;57.22;100944.83;1427879;100;21217;-91
2021/05/11 11:42:05;;;;;;;0.20;0.10;;;;;;;16.24;56.27;100963.39;1427962;99;21216;-90
2021/05/11 11:47:08;;;;;;;0.20;0.15;;;;;;;16.05;55.95;100956.50;1402817;101;21266;-91
2021/05/11 11:49:39;;;;;;;3.02;1.00;;;;;;;16.50;53.50;100961.19;1445274;98;21348;-90
2021/05/11 11:52:31;;;;;;;1.85;0.42;;;;;;;16.93;53.67;100951.67;1450232;98;21319;-89
2021/05/11 12:00:24;;;;;;;1.00;0.30;;;;;;;16.39;51.77;100954.80;1436405;99;22890;-90
2021/05/11 12:03:03;;;;;;;0.45;0.28;;;;;;;16.46;53.36;100941.09;1440067;99;21319;-91
2021/05/11 12:05:37;;;;;;;0.85;0.30;;;;;;;16.55;54.73;100951.58;1484910;96;21691;-90
2021/05/11 12:10:45;;;;;;;0.40;0.30;;;;;;;16.41;50.29;100971.63;1455501;97;21293;-91
2021/05/11 12:13:13;;;;;;;1.27;0.20;;;;;;;16.03;52.38;100955.99;1446242;99;21341;-92
2021/05/11 12:15:40;;;;;;;1.35;0.17;;;;;;;15.90;52.85;100961.53;1449357;97;21218;-91
2021/05/11 12:18:20;;;;;;;0.45;0.10;;;;;;;15.69;55.81;100966.09;1466923;97;21353;-90
2021/05/11 12:20:51;;;;;;;2.52;0.15;;;;;;;15.82;55.82;100960.79;1466742;97;21350;-91
2021/05/11 12:23:18;;;;;;;0.10;0.10;;;;;;;16.20;56.27;100962.87;1454353;97;21360;-92
2021/05/11 12:26:04;;;;;;;0.68;0.30;;;;;;;15.89;54.68;100961.28;1446801;98;21080;-90
2021/05/11 12:28:37;;;;;;;0.20;0.20;;;;;;;16.18;54.79;100965.06;1448150;98;21254;-92
2021/05/11 12:31:07;;;;;;;0.50;0.25;;;;;;;16.53;54.17;100957.05;1449054;98;27429;-90
2021/05/11 12:33:40;;;;;;;0.90;0.23;;;;;;;16.29;54.30;100955.15;1441083;98;21253;-90
2021/05/11 12:36:18;;;;;;;1.22;0.17;;;;;;;15.98;55.26;100975.06;1438997;98;21273;-90
2021/05/11 12:38:44;;;;;;;0.95;0.20;;;;;;;15.67;56.65;100959.02;1481226;96;21205;-89
2021/05/11 12:41:33;;;;;;;1.00;0.20;;;;;;;15.76;54.71;100941.55;1503362;94;21303;-91
2021/05/11 12:44:00;;;;;;;0.85;0.10;;;;;;;15.83;53.62;100950.75;1446201;97;21320;-89
2021/05/11 12:46:36;;;;;;;1.82;0.10;;;;;;;16.15;53.51;100961.05;1438993;99;21463;-88
2021/05/11 12:49:04;;;;;;;0.10;0.10;;;;;;;16.11;54.38;100959.98;1426555;98;21314;-88
2021/05/11 12:54:41;;;;;;;0.20;0.20;;;;;;;16.67;56.34;100925.31;1387694;101;21281;-91
2021/05/11 13:25:10;;;;;;;4.12;0.65;;;;;;;15.23;58.02;100999.78;1472316;97;21279;-88
2021/05/11 13:28:37;;;;;;;9.10;1.00;;;;;;;15.89;59.67;101012.12;1449624;98;21269;-88
2021/05/11 13:31:04;;;;;;;2.87;0.85;;;;;;;15.51;54.49;101043.63;1453113;96;21303;-90
2021/05/11 13:33:35;;;;;;;1.45;0.60;;;;;;;15.04;54.89;101014.56;1446113;96;21320;-91
2021/05/11 13:35:57;;;;;;;1.40;0.50;;;;;;;15.18;55.90;101022.92;1443740;96;21318;-90
2021/05/11 13:38:23;;;;;;;4.15;0.70;;;;;;;14.99;53.82;101012.67;1449171;96;22007;-89
2021/05/11 13:40:51;;;;;;;6.95;1.00;;;;;;;15.46;55.04;101021.37;1454412;96;21305;-91
2021/05/11 13:43:19;;;;;;;1.42;1.00;;;;;;;15.24;53.86;101020.44;1449845;96;21343;-89
2021/05/11 13:45:45;;;;;;;12.85;1.52;;;;;;;15.24;54.90;101019.63;1445073;96;21246;-86
2021/05/11 13:48:19;;;;;;;1.07;0.53;;;;;;;15.29;53.71;101019.58;1459287;97;21295;-88
2021/05/11 13:53:05;;;;;;;2.87;0.78;;;;;;;14.74;53.69;101043.45;1455565;96;21489;-89
2021/05/11 14:03:44;;;;;;;5.03;0.70;;;;;;;14.90;52.38;101059.12;1547740;90;21256;-88
2021/05/11 14:06:11;;;;;;;3.30;1.10;;;;;;;14.67;52.21;101063.27;1518442;92;21239;-87
2021/05/11 14:08:37;;;;;;;5.45;0.90;;;;;;;14.79;52.23;101041.25;1529050;91;21274;-87
2021/05/11 14:11:03;;;;;;;6.03;1.12;;;;;;;14.72;50.97;101052.95;1528631;92;21270;-89
2021/05/11 14:13:29;;;;;;;7.12;1.00;;;;;;;14.86;52.23;101066.75;1524435;92;21233;-90
2021/05/11 14:15:56;;;;;;;3.90;0.85;;;;;;;14.55;52.59;101065.47;1525538;92;21216;-87
2021/05/11 14:18:22;;;;;;;2.77;1.30;;;;;;;14.61;52.47;101059.49;1524417;92;21189;-86
2021/05/11 14:20:48;;;;;;;5.00;1.07;;;;;;;14.77;52.40;101063.80;1523375;92;21030;-88
2021/05/11 14:23:14;;;;;;;3.58;1.05;;;;;;;14.32;50.83;101051.91;1523872;92;21075;-85
2021/05/11 14:25:40;;;;;;;3.92;1.07;;;;;;;14.39;52.62;101057.89;1557871;90;20993;-86
2021/05/11 14:28:06;;;;;;;7.95;0.90;;;;;;;14.36;51.03;101077.41;1573650;89;21247;-89
2021/05/11 14:30:32;;;;;;;1.60;0.60;;;;;;;14.14;50.94;101070.10;1616217;88;21059;-87
2021/05/11 14:33:00;;;;;;;3.70;0.57;;;;;;;13.98;51.82;101066.05;1600567;88;21301;-88
2021/05/11 14:35:26;;;;;;;0.68;0.53;;;;;;;14.14;53.03;101056.00;1522501;93;21222;-85
2021/05/11 14:37:52;;;;;;;1.50;0.90;;;;;;;14.16;51.46;101064.69;1520200;92;21190;-88
2021/05/11 14:40:18;;;;;;;4.50;0.78;;;;;;;14.16;50.91;101053.03;1531241;93;21204;-89
2021/05/11 14:42:45;;;;;;;3.25;0.45;;;;;;;14.05;50.58;101101.00;1523836;92;21674;-88
2021/05/11 14:45:12;;;;;;;1.30;0.70;;;;;;;14.24;51.31;101049.78;1525456;92;21284;-85
2021/05/11 14:47:45;;;;;;;4.03;0.72;;;;;;;14.39;51.96;101061.95;1533444;92;21252;-86
2021/05/11 14:50:06;;;;;;;1.12;0.80;;;;;;;14.49;52.38;101056.50;1528776;92;21233;-89
2021/05/11 14:52:33;;;;;;;0.55;0.45;;;;;;;14.39;50.46;101062.50;1529664;91;21392;-88
2021/05/11 14:54:59;;;;;;;7.87;1.00;;;;;;;14.24;50.54;101066.85;1534177;91;21292;-89
2021/05/11 14:57:25;;;;;;;2.92;0.80;;;;;;;14.22;51.10;101053.30;1530236;91;21081;-89
2021/05/11 14:59:51;;;;;;;0.90;0.53;;;;;;;14.18;51.71;101053.59;1519702;93;21072;-85
2021/05/11 15:02:17;;;;;;;3.72;0.78;;;;;;;14.16;52.29;101046.26;1531303;93;21157;-89
2021/05/11 15:04:44;;;;;;;0.53;0.45;;;;;;;14.20;52.58;101037.84;1535062;92;21932;-89
2021/05/11 15:07:22;;;;;;;0.95;0.45;;;;;;;14.16;52.19;101044.91;1595866;87;21603;-90
2021/05/11 15:09:48;;;;;;;1.72;0.65;;;;;;;14.20;52.50;101041.36;1556554;91;21213;-87
2021/05/11 15:12:14;;;;;;;1.47;0.80;;;;;;;14.27;53.45;101048.69;1584246;89;21102;-86
2021/05/11 15:14:40;;;;;;;5.87;0.78;;;;;;;14.28;53.38;101048.14;1584061;88;21095;-92
2021/05/11 15:19:35;;;;;;;1.62;0.60;;;;;;;14.43;51.18;101050.81;1563138;91;21267;-92
2021/05/11 15:22:00;;;;;;;3.15;0.60;;;;;;;14.07;51.42;101098.30;1591716;89;21231;-89
2021/05/11 15:24:26;;;;;;;2.50;0.45;;;;;;;14.14;51.58;101041.64;1582496;89;21161;-90
2021/05/11 15:26:52;;;;;;;1.82;0.62;;;;;;;14.07;52.89;101058.19;1585154;89;20995;-88
2021/05/11 15:29:18;;;;;;;0.80;0.50;;;;;;;14.18;52.52;101050.33;1584315;89;21307;-89
2021/05/11 15:31:45;;;;;;;2.45;0.70;;;;;;;13.95;52.44;101052.23;1584245;89;21229;-88
2021/05/11 15:34:11;;;;;;;1.37;0.70;;;;;;;13.76;53.50;101057.35;1584985;89;21260;-89
2021/05/11 15:36:36;;;;;;;5.00;0.68;;;;;;;13.84;54.76;101046.80;1592122;89;21112;-88
2021/05/11 15:39:06;;;;;;;1.57;0.78;;;;;;;13.90;53.88;101052.22;1589785;89;22194;-87
2021/05/11 15:41:32;;;;;;;4.55;0.80;;;;;;;13.85;53.37;101048.44;1581327;87;21195;-88
2021/05/11 15:43:58;;;;;;;0.80;0.50;;;;;;;13.94;54.35;101056.00;1635454;87;21179;-88
2021/05/11 15:46:24;;;;;;;2.15;1.00;;;;;;;13.91;53.95;101056.00;1601939;88;21055;-91
2021/05/11 15:48:49;;;;;;;1.12;0.80;;;;;;;13.87;55.35;101058.99;1623346;87;21197;-92
2021/05/11 15:51:15;;;;;;;2.33;0.80;;;;;;;13.62;54.88;101072.78;1626164;88;20994;-88
2021/05/11 15:53:41;;;;;;;3.92;0.80;;;;;;;13.56;55.39;101054.07;1628007;88;21970;-87
2021/05/11 15:56:07;;;;;;;2.02;1.12;;;;;;;13.56;57.30;101056.27;1620177;85;21051;-90
2021/05/11 15:58:33;;;;;;;5.35;0.80;;;;;;;13.57;56.60;101047.59;1649697;85;20966;-87
2021/05/11 16:00:59;;;;;;;1.62;0.78;;;;;;;13.52;55.80;101048.38;1639659;86;21041;-90
2021/05/11 16:03:25;;;;;;;3.70;0.57;;;;;;;13.59;55.64;101058.98;1626525;88;21132;-87
2021/05/11 16:05:53;;;;;;;5.25;0.90;;;;;;;13.54;55.17;101063.02;1607629;88;21292;-86
2021/05/11 16:08:19;;;;;;;3.65;0.85;;;;;;;13.53;56.44;101053.25;1628456;86;21208;-85
2021/05/11 16:10:47;;;;;;;2.50;0.82;;;;;;;13.53;55.29;101050.03;1627095;86;21009;-87